sensor_id;sensor_type;location;lat;lon;timestamp;pressure;altitude;pressure_sealevel;temperature;humidity
77381;BME280;66439;50.106;10.996;2024-01-30T00:01:56;100182.46;;;2.70;63.98
77381;BME280;66439;50.106;10.996;2024-01-30T00:03:59;100182.14;;;2.69;63.92
77381;BME280;66439;50.106;10.996;2024-01-30T00:06:03;100181.50;;;2.68;63.80
77381;BME280;66439;50.106;10.996;2024-01-30T00:08:06;100181.79;;;2.66;63.71
77381;BME280;66439;50.106;10.996;2024-01-30T00:10:08;100183.20;;;2.66;64.01
77381;BME280;66439;50.106;10.996;2024-01-30T00:12:11;100183.80;;;2.68;64.16
77381;BME280;66439;50.106;10.996;2024-01-30T00:14:14;100185.72;;;2.68;64.00
77381;BME280;66439;50.106;10.996;2024-01-30T00:16:23;100185.46;;;2.67;63.84
77381;BME280;66439;50.106;10.996;2024-01-30T00:18:26;100185.03;;;2.65;63.95
77381;BME280;66439;50.106;10.996;2024-01-30T00:20:29;100186.52;;;2.64;63.93
77381;BME280;66439;50.106;10.996;2024-01-30T00:22:32;100179.77;;;2.62;63.92
77381;BME280;66439;50.106;10.996;2024-01-30T00:24:35;100182.81;;;2.61;63.84
77381;BME280;66439;50.106;10.996;2024-01-30T00:26:37;100179.71;;;2.61;63.83
77381;BME280;66439;50.106;10.996;2024-01-30T00:28:41;100175.45;;;2.59;63.92
77381;BME280;66439;50.106;10.996;2024-01-30T00:30:43;100180.10;;;2.57;63.83
77381;BME280;66439;50.106;10.996;2024-01-30T00:32:46;100172.15;;;2.56;63.88
77381;BME280;66439;50.106;10.996;2024-01-30T00:34:49;100171.56;;;2.54;63.88
77381;BME280;66439;50.106;10.996;2024-01-30T00:36:51;100167.98;;;2.53;64.00
77381;BME280;66439;50.106;10.996;2024-01-30T00:38:54;100165.08;;;2.52;64.01
77381;BME280;66439;50.106;10.996;2024-01-30T00:40:56;100159.07;;;2.49;63.96
77381;BME280;66439;50.106;10.996;2024-01-30T00:42:59;100160.36;;;2.49;64.10
77381;BME280;66439;50.106;10.996;2024-01-30T00:45:02;100157.31;;;2.47;64.04
77381;BME280;66439;50.106;10.996;2024-01-30T00:47:05;100161.08;;;2.45;64.05
77381;BME280;66439;50.106;10.996;2024-01-30T00:49:07;100155.75;;;2.43;64.01
77381;BME280;66439;50.106;10.996;2024-01-30T00:51:10;100157.77;;;2.42;64.17
77381;BME280;66439;50.106;10.996;2024-01-30T00:53:13;100154.67;;;2.41;64.21
77381;BME280;66439;50.106;10.996;2024-01-30T00:55:15;100159.26;;;2.41;64.21
77381;BME280;66439;50.106;10.996;2024-01-30T00:57:18;100159.69;;;2.39;64.25
77381;BME280;66439;50.106;10.996;2024-01-30T00:59:21;100157.55;;;2.37;64.19
77381;BME280;66439;50.106;10.996;2024-01-30T01:01:23;100159.35;;;2.36;64.29
77381;BME280;66439;50.106;10.996;2024-01-30T01:03:26;100155.27;;;2.37;64.24
77381;BME280;66439;50.106;10.996;2024-01-30T01:05:29;100156.14;;;2.40;64.35
77381;BME280;66439;50.106;10.996;2024-01-30T01:07:31;100150.49;;;2.43;64.31
77381;BME280;66439;50.106;10.996;2024-01-30T01:09:34;100150.05;;;2.45;64.33
77381;BME280;66439;50.106;10.996;2024-01-30T01:11:37;100151.05;;;2.46;64.24
77381;BME280;66439;50.106;10.996;2024-01-30T01:13:40;100148.26;;;2.46;64.29
77381;BME280;66439;50.106;10.996;2024-01-30T01:15:43;100144.70;;;2.47;64.30
77381;BME280;66439;50.106;10.996;2024-01-30T01:17:46;100144.31;;;2.48;64.26
77381;BME280;66439;50.106;10.996;2024-01-30T01:19:48;100139.59;;;2.48;64.26
77381;BME280;66439;50.106;10.996;2024-01-30T01:21:53;100138.85;;;2.49;64.23
77381;BME280;66439;50.106;10.996;2024-01-30T01:23:56;100136.37;;;2.49;64.09
77381;BME280;66439;50.106;10.996;2024-01-30T01:25:59;100135.66;;;2.49;64.15
77381;BME280;66439;50.106;10.996;2024-01-30T01:28:03;100137.58;;;2.49;64.13
77381;BME280;66439;50.106;10.996;2024-01-30T01:30:09;100138.88;;;2.48;64.11
77381;BME280;66439;50.106;10.996;2024-01-30T01:32:12;100131.77;;;2.47;64.02
77381;BME280;66439;50.106;10.996;2024-01-30T01:34:15;100133.07;;;2.45;64.07
77381;BME280;66439;50.106;10.996;2024-01-30T01:36:18;100133.63;;;2.45;64.04
77381;BME280;66439;50.106;10.996;2024-01-30T01:38:21;100135.15;;;2.46;64.10
77381;BME280;66439;50.106;10.996;2024-01-30T01:40:24;100134.04;;;2.44;64.06
77381;BME280;66439;50.106;10.996;2024-01-30T01:42:27;100132.42;;;2.42;64.05
77381;BME280;66439;50.106;10.996;2024-01-30T01:44:29;100129.72;;;2.40;64.00
77381;BME280;66439;50.106;10.996;2024-01-30T01:46:33;100126.98;;;2.39;64.12
77381;BME280;66439;50.106;10.996;2024-01-30T01:48:36;100122.88;;;2.38;63.96
77381;BME280;66439;50.106;10.996;2024-01-30T01:50:41;100122.91;;;2.37;64.10
77381;BME280;66439;50.106;10.996;2024-01-30T01:52:47;100116.92;;;2.35;64.09
77381;BME280;66439;50.106;10.996;2024-01-30T01:54:50;100117.84;;;2.34;64.16
77381;BME280;66439;50.106;10.996;2024-01-30T01:56:53;100117.60;;;2.33;64.18
77381;BME280;66439;50.106;10.996;2024-01-30T01:59:00;100110.90;;;2.31;64.11
77381;BME280;66439;50.106;10.996;2024-01-30T02:01:03;100113.44;;;2.29;64.26
77381;BME280;66439;50.106;10.996;2024-01-30T02:03:10;100115.90;;;2.29;64.35
77381;BME280;66439;50.106;10.996;2024-01-30T02:05:15;100115.06;;;2.29;64.26
77381;BME280;66439;50.106;10.996;2024-01-30T02:07:18;100114.02;;;2.29;64.50
77381;BME280;66439;50.106;10.996;2024-01-30T02:09:21;100111.74;;;2.29;64.39
77381;BME280;66439;50.106;10.996;2024-01-30T02:11:23;100104.93;;;2.29;64.43
77381;BME280;66439;50.106;10.996;2024-01-30T02:13:26;100106.18;;;2.31;64.42
77381;BME280;66439;50.106;10.996;2024-01-30T02:15:29;100105.63;;;2.34;64.43
77381;BME280;66439;50.106;10.996;2024-01-30T02:17:31;100107.70;;;2.37;64.47
77381;BME280;66439;50.106;10.996;2024-01-30T02:19:34;100115.27;;;2.39;64.41
77381;BME280;66439;50.106;10.996;2024-01-30T02:21:37;100116.45;;;2.40;64.38
77381;BME280;66439;50.106;10.996;2024-01-30T02:23:40;100119.77;;;2.40;64.39
77381;BME280;66439;50.106;10.996;2024-01-30T02:25:43;100125.58;;;2.39;64.44
77381;BME280;66439;50.106;10.996;2024-01-30T02:27:48;100118.95;;;2.39;64.41
77381;BME280;66439;50.106;10.996;2024-01-30T02:29:51;100117.27;;;2.41;64.45
77381;BME280;66439;50.106;10.996;2024-01-30T02:31:54;100115.77;;;2.42;64.59
77381;BME280;66439;50.106;10.996;2024-01-30T02:33:57;100114.23;;;2.45;64.62
77381;BME280;66439;50.106;10.996;2024-01-30T02:36:00;100116.71;;;2.47;64.42
77381;BME280;66439;50.106;10.996;2024-01-30T02:38:03;100118.92;;;2.48;64.42
77381;BME280;66439;50.106;10.996;2024-01-30T02:40:07;100116.95;;;2.49;64.34
77381;BME280;66439;50.106;10.996;2024-01-30T02:42:10;100116.02;;;2.50;64.30
77381;BME280;66439;50.106;10.996;2024-01-30T02:44:13;100110.27;;;2.49;64.22
77381;BME280;66439;50.106;10.996;2024-01-30T02:46:16;100112.05;;;2.49;64.19
77381;BME280;66439;50.106;10.996;2024-01-30T02:48:18;100106.31;;;2.49;64.12
77381;BME280;66439;50.106;10.996;2024-01-30T02:50:21;100106.86;;;2.45;63.86
77381;BME280;66439;50.106;10.996;2024-01-30T02:52:24;100110.67;;;2.40;63.76
77381;BME280;66439;50.106;10.996;2024-01-30T02:54:26;100109.20;;;2.36;63.95
77381;BME280;66439;50.106;10.996;2024-01-30T02:56:29;100108.56;;;2.35;64.20
77381;BME280;66439;50.106;10.996;2024-01-30T02:58:32;100113.48;;;2.34;63.99
77381;BME280;66439;50.106;10.996;2024-01-30T03:00:34;100113.21;;;2.33;64.08
77381;BME280;66439;50.106;10.996;2024-01-30T03:02:37;100114.81;;;2.30;63.91
77381;BME280;66439;50.106;10.996;2024-01-30T03:04:41;100116.80;;;2.26;64.03
77381;BME280;66439;50.106;10.996;2024-01-30T03:06:45;100115.50;;;2.22;64.05
77381;BME280;66439;50.106;10.996;2024-01-30T03:08:49;100117.40;;;2.19;64.20
77381;BME280;66439;50.106;10.996;2024-01-30T03:10:52;100111.53;;;2.18;64.27
77381;BME280;66439;50.106;10.996;2024-01-30T03:12:54;100109.42;;;2.18;64.28
77381;BME280;66439;50.106;10.996;2024-01-30T03:14:57;100109.47;;;2.17;64.03
77381;BME280;66439;50.106;10.996;2024-01-30T03:16:59;100105.33;;;2.17;63.95
77381;BME280;66439;50.106;10.996;2024-01-30T03:19:02;100108.16;;;2.16;64.12
77381;BME280;66439;50.106;10.996;2024-01-30T03:21:06;100108.92;;;2.15;64.27
77381;BME280;66439;50.106;10.996;2024-01-30T03:23:08;100108.67;;;2.13;64.12
77381;BME280;66439;50.106;10.996;2024-01-30T03:25:11;100108.61;;;2.14;64.13
77381;BME280;66439;50.106;10.996;2024-01-30T03:27:14;100115.54;;;2.15;64.14
77381;BME280;66439;50.106;10.996;2024-01-30T03:29:17;100114.27;;;2.16;64.20
77381;BME280;66439;50.106;10.996;2024-01-30T03:31:19;100113.16;;;2.17;64.26
77381;BME280;66439;50.106;10.996;2024-01-30T03:33:22;100114.94;;;2.19;64.47
77381;BME280;66439;50.106;10.996;2024-01-30T03:35:25;100117.45;;;2.21;64.48
77381;BME280;66439;50.106;10.996;2024-01-30T03:37:27;100115.55;;;2.24;64.36
77381;BME280;66439;50.106;10.996;2024-01-30T03:39:30;100117.27;;;2.24;64.24
77381;BME280;66439;50.106;10.996;2024-01-30T03:41:33;100115.57;;;2.23;64.10
77381;BME280;66439;50.106;10.996;2024-01-30T03:43:36;100114.73;;;2.23;64.13
77381;BME280;66439;50.106;10.996;2024-01-30T03:45:39;100116.70;;;2.22;64.20
77381;BME280;66439;50.106;10.996;2024-01-30T03:47:43;100119.00;;;2.22;64.12
77381;BME280;66439;50.106;10.996;2024-01-30T03:49:46;100117.23;;;2.19;64.11
77381;BME280;66439;50.106;10.996;2024-01-30T03:51:48;100116.60;;;2.18;64.09
77381;BME280;66439;50.106;10.996;2024-01-30T03:53:51;100118.09;;;2.16;64.05
77381;BME280;66439;50.106;10.996;2024-01-30T03:55:54;100117.76;;;2.16;64.02
77381;BME280;66439;50.106;10.996;2024-01-30T03:57:56;100113.80;;;2.15;64.10
77381;BME280;66439;50.106;10.996;2024-01-30T03:59:59;100112.09;;;2.14;63.96
77381;BME280;66439;50.106;10.996;2024-01-30T04:02:13;100112.63;;;2.14;63.82
77381;BME280;66439;50.106;10.996;2024-01-30T04:04:17;100114.35;;;2.12;63.81
77381;BME280;66439;50.106;10.996;2024-01-30T04:06:20;100111.31;;;2.10;64.00
77381;BME280;66439;50.106;10.996;2024-01-30T04:08:23;100108.42;;;2.09;63.77
77381;BME280;66439;50.106;10.996;2024-01-30T04:10:25;100104.47;;;2.08;63.73
77381;BME280;66439;50.106;10.996;2024-01-30T04:12:28;100107.40;;;2.06;63.84
77381;BME280;66439;50.106;10.996;2024-01-30T04:14:31;100105.08;;;2.04;63.78
77381;BME280;66439;50.106;10.996;2024-01-30T04:16:34;100105.54;;;2.02;63.83
77381;BME280;66439;50.106;10.996;2024-01-30T04:18:37;100102.97;;;2.01;63.86
77381;BME280;66439;50.106;10.996;2024-01-30T04:20:40;100101.44;;;1.98;63.73
77381;BME280;66439;50.106;10.996;2024-01-30T04:22:43;100102.94;;;1.95;63.76
77381;BME280;66439;50.106;10.996;2024-01-30T04:24:46;100103.79;;;1.93;64.02
77381;BME280;66439;50.106;10.996;2024-01-30T04:26:49;100103.95;;;1.90;64.15
77381;BME280;66439;50.106;10.996;2024-01-30T04:28:52;100106.83;;;1.86;64.01
77381;BME280;66439;50.106;10.996;2024-01-30T04:30:54;100108.36;;;1.81;64.23
77381;BME280;66439;50.106;10.996;2024-01-30T04:32:57;100106.86;;;1.80;64.26
77381;BME280;66439;50.106;10.996;2024-01-30T04:35:00;100103.72;;;1.83;64.49
77381;BME280;66439;50.106;10.996;2024-01-30T04:37:03;100110.98;;;1.87;64.57
77381;BME280;66439;50.106;10.996;2024-01-30T04:39:06;100106.81;;;1.89;64.66
77381;BME280;66439;50.106;10.996;2024-01-30T04:41:08;100106.41;;;1.93;64.65
77381;BME280;66439;50.106;10.996;2024-01-30T04:43:11;100107.13;;;1.95;64.54
77381;BME280;66439;50.106;10.996;2024-01-30T04:45:13;100110.78;;;1.96;64.47
77381;BME280;66439;50.106;10.996;2024-01-30T04:47:16;100103.63;;;1.96;64.40
77381;BME280;66439;50.106;10.996;2024-01-30T04:49:19;100103.45;;;1.95;64.48
77381;BME280;66439;50.106;10.996;2024-01-30T04:51:22;100104.31;;;1.96;64.57
77381;BME280;66439;50.106;10.996;2024-01-30T04:53:25;100100.84;;;1.96;64.45
77381;BME280;66439;50.106;10.996;2024-01-30T04:55:27;100106.21;;;1.96;64.54
77381;BME280;66439;50.106;10.996;2024-01-30T04:57:30;100105.71;;;1.96;64.53
77381;BME280;66439;50.106;10.996;2024-01-30T04:59:34;100109.46;;;1.95;64.45
77381;BME280;66439;50.106;10.996;2024-01-30T05:01:36;100111.95;;;1.94;64.50
77381;BME280;66439;50.106;10.996;2024-01-30T05:03:39;100114.86;;;1.92;64.35
77381;BME280;66439;50.106;10.996;2024-01-30T05:05:41;100117.80;;;1.90;64.40
77381;BME280;66439;50.106;10.996;2024-01-30T05:07:44;100120.30;;;1.89;64.50
77381;BME280;66439;50.106;10.996;2024-01-30T05:09:46;100124.02;;;1.85;64.35
77381;BME280;66439;50.106;10.996;2024-01-30T05:11:49;100131.52;;;1.83;64.33
77381;BME280;66439;50.106;10.996;2024-01-30T05:13:52;100132.27;;;1.79;64.42
77381;BME280;66439;50.106;10.996;2024-01-30T05:15:54;100131.66;;;1.77;64.54
77381;BME280;66439;50.106;10.996;2024-01-30T05:17:57;100130.25;;;1.75;64.51
77381;BME280;66439;50.106;10.996;2024-01-30T05:20:00;100135.56;;;1.73;64.62
77381;BME280;66439;50.106;10.996;2024-01-30T05:22:03;100133.89;;;1.72;64.68
77381;BME280;66439;50.106;10.996;2024-01-30T05:24:06;100134.93;;;1.73;64.66
77381;BME280;66439;50.106;10.996;2024-01-30T05:26:09;100132.16;;;1.72;64.62
77381;BME280;66439;50.106;10.996;2024-01-30T05:28:12;100126.96;;;1.71;64.63
77381;BME280;66439;50.106;10.996;2024-01-30T05:30:14;100128.73;;;1.71;64.66
77381;BME280;66439;50.106;10.996;2024-01-30T05:32:17;100127.05;;;1.70;64.77
77381;BME280;66439;50.106;10.996;2024-01-30T05:34:20;100129.11;;;1.70;64.79
77381;BME280;66439;50.106;10.996;2024-01-30T05:36:22;100131.11;;;1.72;64.71
77381;BME280;66439;50.106;10.996;2024-01-30T05:38:25;100128.83;;;1.72;64.48
77381;BME280;66439;50.106;10.996;2024-01-30T05:40:28;100126.54;;;1.73;64.48
77381;BME280;66439;50.106;10.996;2024-01-30T05:42:31;100132.89;;;1.75;64.71
77381;BME280;66439;50.106;10.996;2024-01-30T05:44:33;100129.46;;;1.76;64.73
77381;BME280;66439;50.106;10.996;2024-01-30T05:46:35;100128.69;;;1.78;64.88
77381;BME280;66439;50.106;10.996;2024-01-30T05:48:38;100128.60;;;1.79;64.82
77381;BME280;66439;50.106;10.996;2024-01-30T05:50:41;100127.02;;;1.79;64.69
77381;BME280;66439;50.106;10.996;2024-01-30T05:52:44;100127.97;;;1.78;64.61
77381;BME280;66439;50.106;10.996;2024-01-30T05:54:47;100124.95;;;1.76;64.87
77381;BME280;66439;50.106;10.996;2024-01-30T05:56:49;100124.35;;;1.77;65.02
77381;BME280;66439;50.106;10.996;2024-01-30T05:58:52;100122.40;;;1.78;64.95
77381;BME280;66439;50.106;10.996;2024-01-30T06:00:54;100121.09;;;1.76;64.77
77381;BME280;66439;50.106;10.996;2024-01-30T06:02:57;100125.38;;;1.74;64.81
77381;BME280;66439;50.106;10.996;2024-01-30T06:05:00;100127.06;;;1.72;64.89
77381;BME280;66439;50.106;10.996;2024-01-30T06:07:02;100132.03;;;1.71;65.00
77381;BME280;66439;50.106;10.996;2024-01-30T06:09:05;100132.48;;;1.69;64.86
77381;BME280;66439;50.106;10.996;2024-01-30T06:11:12;100136.97;;;1.68;65.03
77381;BME280;66439;50.106;10.996;2024-01-30T06:13:14;100140.46;;;1.67;65.15
77381;BME280;66439;50.106;10.996;2024-01-30T06:15:17;100142.52;;;1.68;65.26
77381;BME280;66439;50.106;10.996;2024-01-30T06:17:20;100144.16;;;1.70;65.36
77381;BME280;66439;50.106;10.996;2024-01-30T06:19:22;100147.08;;;1.71;65.16
77381;BME280;66439;50.106;10.996;2024-01-30T06:21:25;100144.83;;;1.67;65.13
77381;BME280;66439;50.106;10.996;2024-01-30T06:23:28;100148.38;;;1.67;65.22
77381;BME280;66439;50.106;10.996;2024-01-30T06:25:30;100146.65;;;1.66;65.19
77381;BME280;66439;50.106;10.996;2024-01-30T06:27:33;100144.63;;;1.65;65.27
77381;BME280;66439;50.106;10.996;2024-01-30T06:29:35;100144.45;;;1.65;65.41
77381;BME280;66439;50.106;10.996;2024-01-30T06:31:41;100146.70;;;1.65;65.41
77381;BME280;66439;50.106;10.996;2024-01-30T06:33:46;100147.54;;;1.69;65.37
77381;BME280;66439;50.106;10.996;2024-01-30T06:35:49;100149.59;;;1.73;65.29
77381;BME280;66439;50.106;10.996;2024-01-30T06:37:52;100150.86;;;1.75;65.26
77381;BME280;66439;50.106;10.996;2024-01-30T06:39:54;100152.29;;;1.74;65.23
77381;BME280;66439;50.106;10.996;2024-01-30T06:41:57;100152.16;;;1.74;65.31
77381;BME280;66439;50.106;10.996;2024-01-30T06:44:02;100152.63;;;1.74;65.58
77381;BME280;66439;50.106;10.996;2024-01-30T06:46:06;100151.41;;;1.74;65.49
77381;BME280;66439;50.106;10.996;2024-01-30T06:48:09;100152.16;;;1.73;65.64
77381;BME280;66439;50.106;10.996;2024-01-30T06:50:12;100148.73;;;1.73;65.54
77381;BME280;66439;50.106;10.996;2024-01-30T06:52:15;100149.44;;;1.72;65.61
77381;BME280;66439;50.106;10.996;2024-01-30T06:54:18;100152.70;;;1.73;65.64
77381;BME280;66439;50.106;10.996;2024-01-30T06:56:20;100150.06;;;1.74;65.57
77381;BME280;66439;50.106;10.996;2024-01-30T06:58:23;100148.81;;;1.74;65.59
77381;BME280;66439;50.106;10.996;2024-01-30T07:00:26;100147.58;;;1.75;65.72
77381;BME280;66439;50.106;10.996;2024-01-30T07:02:28;100149.51;;;1.74;65.57
77381;BME280;66439;50.106;10.996;2024-01-30T07:04:31;100150.59;;;1.74;65.71
77381;BME280;66439;50.106;10.996;2024-01-30T07:06:34;100150.93;;;1.74;65.54
77381;BME280;66439;50.106;10.996;2024-01-30T07:08:37;100152.33;;;1.74;65.67
77381;BME280;66439;50.106;10.996;2024-01-30T07:10:43;100150.92;;;1.74;65.76
77381;BME280;66439;50.106;10.996;2024-01-30T07:12:46;100152.65;;;1.74;65.65
77381;BME280;66439;50.106;10.996;2024-01-30T07:14:49;100152.98;;;1.75;65.84
77381;BME280;66439;50.106;10.996;2024-01-30T07:16:52;100156.42;;;1.75;65.63
77381;BME280;66439;50.106;10.996;2024-01-30T07:18:55;100156.20;;;1.76;65.83
77381;BME280;66439;50.106;10.996;2024-01-30T07:20:59;100157.66;;;1.78;65.91
77381;BME280;66439;50.106;10.996;2024-01-30T07:23:02;100159.02;;;1.79;65.80
77381;BME280;66439;50.106;10.996;2024-01-30T07:25:06;100160.89;;;1.80;65.84
77381;BME280;66439;50.106;10.996;2024-01-30T07:27:09;100158.98;;;1.85;65.94
77381;BME280;66439;50.106;10.996;2024-01-30T07:29:12;100162.79;;;1.91;65.97
77381;BME280;66439;50.106;10.996;2024-01-30T07:31:15;100164.70;;;1.98;65.84
77381;BME280;66439;50.106;10.996;2024-01-30T07:33:18;100166.19;;;2.02;65.91
77381;BME280;66439;50.106;10.996;2024-01-30T07:35:21;100169.81;;;2.06;65.93
77381;BME280;66439;50.106;10.996;2024-01-30T07:37:23;100165.45;;;2.08;66.10
77381;BME280;66439;50.106;10.996;2024-01-30T07:39:26;100169.84;;;2.11;66.09
77381;BME280;66439;50.106;10.996;2024-01-30T07:41:29;100168.81;;;2.14;65.96
77381;BME280;66439;50.106;10.996;2024-01-30T07:43:32;100169.92;;;2.15;65.94
77381;BME280;66439;50.106;10.996;2024-01-30T07:45:36;100167.31;;;2.18;66.00
77381;BME280;66439;50.106;10.996;2024-01-30T07:47:40;100169.81;;;2.20;65.92
77381;BME280;66439;50.106;10.996;2024-01-30T07:49:42;100170.61;;;2.21;65.85
77381;BME280;66439;50.106;10.996;2024-01-30T07:51:45;100175.11;;;2.22;65.85
77381;BME280;66439;50.106;10.996;2024-01-30T07:53:48;100173.79;;;2.24;66.01
77381;BME280;66439;50.106;10.996;2024-01-30T07:55:52;100180.17;;;2.25;65.87
77381;BME280;66439;50.106;10.996;2024-01-30T07:57:55;100180.59;;;2.27;65.96
77381;BME280;66439;50.106;10.996;2024-01-30T07:59:58;100180.36;;;2.28;66.02
77381;BME280;66439;50.106;10.996;2024-01-30T08:02:02;100182.56;;;2.29;66.00
77381;BME280;66439;50.106;10.996;2024-01-30T08:04:05;100184.59;;;2.30;65.92
77381;BME280;66439;50.106;10.996;2024-01-30T08:06:07;100186.45;;;2.31;65.74
77381;BME280;66439;50.106;10.996;2024-01-30T08:08:10;100189.23;;;2.31;65.81
77381;BME280;66439;50.106;10.996;2024-01-30T08:10:14;100190.94;;;2.32;65.87
77381;BME280;66439;50.106;10.996;2024-01-30T08:12:17;100191.20;;;2.33;65.73
77381;BME280;66439;50.106;10.996;2024-01-30T08:14:19;100191.19;;;2.33;65.77
77381;BME280;66439;50.106;10.996;2024-01-30T08:16:22;100195.71;;;2.33;65.77
77381;BME280;66439;50.106;10.996;2024-01-30T08:18:24;100194.46;;;2.34;65.85
77381;BME280;66439;50.106;10.996;2024-01-30T08:20:27;100192.11;;;2.38;65.85
77381;BME280;66439;50.106;10.996;2024-01-30T08:22:30;100197.39;;;2.43;65.92
77381;BME280;66439;50.106;10.996;2024-01-30T08:24:33;100195.63;;;2.50;65.91
77381;BME280;66439;50.106;10.996;2024-01-30T08:26:35;100199.34;;;2.55;65.86
77381;BME280;66439;50.106;10.996;2024-01-30T08:28:38;100194.32;;;2.59;65.90
77381;BME280;66439;50.106;10.996;2024-01-30T08:30:41;100195.59;;;2.64;66.08
77381;BME280;66439;50.106;10.996;2024-01-30T08:32:44;100194.10;;;2.68;65.92
77381;BME280;66439;50.106;10.996;2024-01-30T08:34:47;100194.95;;;2.72;65.80
77381;BME280;66439;50.106;10.996;2024-01-30T08:36:50;100196.67;;;2.75;65.85
77381;BME280;66439;50.106;10.996;2024-01-30T08:38:52;100190.00;;;2.78;65.88
77381;BME280;66439;50.106;10.996;2024-01-30T08:41:02;100183.65;;;2.81;65.85
77381;BME280;66439;50.106;10.996;2024-01-30T08:43:05;100181.23;;;2.84;65.82
77381;BME280;66439;50.106;10.996;2024-01-30T08:45:08;100180.98;;;2.88;65.77
77381;BME280;66439;50.106;10.996;2024-01-30T08:47:12;100181.67;;;2.90;65.68
77381;BME280;66439;50.106;10.996;2024-01-30T08:49:16;100183.96;;;2.93;65.74
77381;BME280;66439;50.106;10.996;2024-01-30T08:51:18;100179.71;;;2.97;65.76
77381;BME280;66439;50.106;10.996;2024-01-30T08:53:21;100180.45;;;2.99;65.70
77381;BME280;66439;50.106;10.996;2024-01-30T08:55:24;100181.98;;;3.00;65.76
77381;BME280;66439;50.106;10.996;2024-01-30T08:57:26;100184.35;;;3.01;65.61
77381;BME280;66439;50.106;10.996;2024-01-30T08:59:31;100187.48;;;3.01;65.63
77381;BME280;66439;50.106;10.996;2024-01-30T09:01:34;100188.59;;;3.03;65.68
77381;BME280;66439;50.106;10.996;2024-01-30T09:03:37;100189.46;;;3.03;65.67
77381;BME280;66439;50.106;10.996;2024-01-30T09:05:42;100186.08;;;3.04;65.66
77381;BME280;66439;50.106;10.996;2024-01-30T09:07:45;100187.49;;;3.04;65.62
77381;BME280;66439;50.106;10.996;2024-01-30T09:09:48;100184.41;;;3.05;65.62
77381;BME280;66439;50.106;10.996;2024-01-30T09:11:51;100185.08;;;3.08;65.70
77381;BME280;66439;50.106;10.996;2024-01-30T09:13:54;100188.81;;;3.13;65.72
77381;BME280;66439;50.106;10.996;2024-01-30T09:15:56;100189.70;;;3.18;65.70
77381;BME280;66439;50.106;10.996;2024-01-30T09:17:59;100185.41;;;3.22;65.80
77381;BME280;66439;50.106;10.996;2024-01-30T09:20:02;100182.38;;;3.26;65.72
77381;BME280;66439;50.106;10.996;2024-01-30T09:22:05;100183.70;;;3.30;65.75
77381;BME280;66439;50.106;10.996;2024-01-30T09:24:09;100184.19;;;3.33;65.85
77381;BME280;66439;50.106;10.996;2024-01-30T09:26:11;100180.98;;;3.36;65.71
77381;BME280;66439;50.106;10.996;2024-01-30T09:28:15;100182.03;;;3.39;65.57
77381;BME280;66439;50.106;10.996;2024-01-30T09:30:18;100184.70;;;3.41;65.71
77381;BME280;66439;50.106;10.996;2024-01-30T09:32:20;100180.86;;;3.44;65.64
77381;BME280;66439;50.106;10.996;2024-01-30T09:34:24;100177.73;;;3.46;65.49
77381;BME280;66439;50.106;10.996;2024-01-30T09:36:27;100176.34;;;3.48;65.59
77381;BME280;66439;50.106;10.996;2024-01-30T09:38:30;100174.92;;;3.51;65.66
77381;BME280;66439;50.106;10.996;2024-01-30T09:40:32;100178.77;;;3.54;65.74
77381;BME280;66439;50.106;10.996;2024-01-30T09:42:36;100180.55;;;3.56;65.67
77381;BME280;66439;50.106;10.996;2024-01-30T09:44:43;100177.93;;;3.58;65.67
77381;BME280;66439;50.106;10.996;2024-01-30T09:46:47;100180.93;;;3.61;65.48
77381;BME280;66439;50.106;10.996;2024-01-30T09:48:51;100179.79;;;3.62;65.25
77381;BME280;66439;50.106;10.996;2024-01-30T09:50:54;100184.58;;;3.64;65.36
77381;BME280;66439;50.106;10.996;2024-01-30T09:52:58;100183.91;;;3.66;65.46
77381;BME280;66439;50.106;10.996;2024-01-30T09:55:01;100184.86;;;3.68;65.61
77381;BME280;66439;50.106;10.996;2024-01-30T09:57:04;100190.68;;;3.70;65.55
77381;BME280;66439;50.106;10.996;2024-01-30T09:59:07;100185.10;;;3.72;65.47
77381;BME280;66439;50.106;10.996;2024-01-30T10:01:10;100183.52;;;3.77;65.51
77381;BME280;66439;50.106;10.996;2024-01-30T10:03:13;100182.36;;;3.84;65.57
77381;BME280;66439;50.106;10.996;2024-01-30T10:05:19;100181.43;;;3.90;65.59
77381;BME280;66439;50.106;10.996;2024-01-30T10:07:21;100184.56;;;3.95;65.62
77381;BME280;66439;50.106;10.996;2024-01-30T10:09:25;100185.13;;;4.00;65.70
77381;BME280;66439;50.106;10.996;2024-01-30T10:11:28;100189.22;;;4.04;65.64
77381;BME280;66439;50.106;10.996;2024-01-30T10:13:30;100186.13;;;4.08;65.68
77381;BME280;66439;50.106;10.996;2024-01-30T10:15:34;100186.40;;;4.12;65.62
77381;BME280;66439;50.106;10.996;2024-01-30T10:17:38;100188.61;;;4.16;65.38
77381;BME280;66439;50.106;10.996;2024-01-30T10:19:41;100187.49;;;4.19;65.51
77381;BME280;66439;50.106;10.996;2024-01-30T10:21:46;100188.47;;;4.23;65.51
77381;BME280;66439;50.106;10.996;2024-01-30T10:23:49;100188.06;;;4.26;65.48
77381;BME280;66439;50.106;10.996;2024-01-30T10:25:52;100187.38;;;4.28;65.37
77381;BME280;66439;50.106;10.996;2024-01-30T10:27:55;100186.13;;;4.31;65.19
77381;BME280;66439;50.106;10.996;2024-01-30T10:29:58;100182.45;;;4.33;65.14
77381;BME280;66439;50.106;10.996;2024-01-30T10:32:01;100186.90;;;4.35;65.17
77381;BME280;66439;50.106;10.996;2024-01-30T10:34:04;100191.82;;;4.37;65.14
77381;BME280;66439;50.106;10.996;2024-01-30T10:36:26;100191.17;;;4.39;65.23
77381;BME280;66439;50.106;10.996;2024-01-30T10:38:31;100191.56;;;4.42;65.14
77381;BME280;66439;50.106;10.996;2024-01-30T10:40:35;100190.55;;;4.44;65.20
77381;BME280;66439;50.106;10.996;2024-01-30T10:42:45;100187.79;;;4.45;65.14
77381;BME280;66439;50.106;10.996;2024-01-30T10:45:04;100190.61;;;4.48;65.05